Time;durP1;ratioP1;P1;durP2;ratioP2;P2;SDS_P1;SDS_P2;PMS_P1;PMS_P2;Temp;Humidity;BMP_temperature;BMP_pressure;BME280_temperature;BME280_humidity;BME280_pressure;Samples;Min_cycle;Max_cycle;Signal;HPM_P1;HPM_P2
2022/11/07 00:02:06;;;;;;;8.63;8.13;;;11.50;42.90;;;;;;4968676;28;20413;-58
2022/11/07 00:04:32;;;;;;;9.13;8.73;;;11.60;43.00;;;;;;4966967;28;20186;-58
2022/11/07 00:06:58;;;;;;;8.53;8.23;;;11.60;43.00;;;;;;4968243;28;20421;-58
2022/11/07 00:09:24;;;;;;;8.57;8.27;;;11.60;43.00;;;;;;4968621;28;20817;-58
2022/11/07 00:11:50;;;;;;;8.23;7.93;;;11.60;43.00;;;;;;4969003;28;20421;-57
2022/11/07 00:14:16;;;;;;;9.30;8.80;;;11.60;43.00;;;;;;4969738;28;20914;-58
2022/11/07 00:16:43;;;;;;;8.90;8.40;;;11.50;43.40;;;;;;4968084;28;20228;-57
2022/11/07 00:19:10;;;;;;;9.00;8.70;;;11.50;42.90;;;;;;4966721;28;20854;-57
2022/11/07 00:21:37;;;;;;;9.37;9.07;;;11.50;43.50;;;;;;4965163;28;20473;-58
2022/11/07 00:24:03;;;;;;;9.20;8.90;;;11.50;43.60;;;;;;4968127;28;20410;-58
2022/11/07 00:26:28;;;;;;;8.87;8.57;;;11.50;44.20;;;;;;4966832;28;20480;-58
2022/11/07 00:28:55;;;;;;;8.80;8.50;;;11.50;44.00;;;;;;4966851;28;20457;-58
2022/11/07 00:31:20;;;;;;;8.50;8.20;;;11.50;44.70;;;;;;4966589;28;20673;-58
2022/11/07 00:33:46;;;;;;;9.60;9.20;;;11.50;44.60;;;;;;4966749;28;20409;-58
2022/11/07 00:36:20;;;;;;;7.90;7.70;;;11.50;44.70;;;;;;4965786;28;20186;-58
2022/11/07 00:38:46;;;;;;;8.23;7.93;;;11.60;44.60;;;;;;4969337;28;20184;-58
2022/11/07 00:41:12;;;;;;;8.20;7.90;;;11.50;44.80;;;;;;4967185;28;20997;-58
2022/11/07 00:43:38;;;;;;;9.13;8.73;;;11.50;44.90;;;;;;4966863;28;20194;-58
2022/11/07 00:46:05;;;;;;;8.70;8.40;;;11.60;44.90;;;;;;4965490;28;20422;-58
2022/11/07 00:48:32;;;;;;;8.97;8.67;;;11.60;45.50;;;;;;4967119;28;20885;-58
2022/11/07 00:51:07;;;;;;;9.23;8.93;;;11.70;45.00;;;;;;4965238;28;20458;-56
2022/11/07 00:53:33;;;;;;;8.03;7.83;;;11.70;44.80;;;;;;4966835;28;21057;-56
2022/11/07 00:56:01;;;;;;;8.70;8.50;;;11.70;44.90;;;;;;4967182;28;20677;-56
2022/11/07 00:58:26;;;;;;;8.80;8.50;;;11.70;45.10;;;;;;4965878;28;20206;-57
2022/11/07 01:00:52;;;;;;;9.27;8.87;;;11.70;45.20;;;;;;4965517;28;20468;-56
2022/11/07 01:06:03;;;;;;;8.37;8.17;;;11.70;45.20;;;;;;4964498;28;20193;-55
2022/11/07 01:08:30;;;;;;;8.33;8.07;;;11.80;45.10;;;;;;4961307;28;20504;-52
2022/11/07 01:10:57;;;;;;;8.60;8.30;;;11.80;45.10;;;;;;4962323;28;20502;-56
2022/11/07 01:13:23;;;;;;;7.83;7.63;;;11.80;45.20;;;;;;4960495;28;20420;-56
2022/11/07 01:15:49;;;;;;;8.80;8.60;;;11.80;45.10;;;;;;4962162;28;20406;-55
2022/11/07 01:18:15;;;;;;;8.67;8.37;;;11.70;45.30;;;;;;4961941;28;20789;-57
2022/11/07 01:20:40;;;;;;;9.07;8.77;;;11.70;45.40;;;;;;4962734;28;20488;-58
2022/11/07 01:23:06;;;;;;;9.60;9.30;;;11.60;45.80;;;;;;4961282;28;20631;-58
2022/11/07 01:25:34;;;;;;;9.13;8.83;;;11.70;46.00;;;;;;4962210;28;20631;-58
2022/11/07 01:28:00;;;;;;;9.50;9.20;;;11.60;46.00;;;;;;4960495;28;20497;-58
2022/11/07 01:30:25;;;;;;;8.93;8.63;;;11.60;46.50;;;;;;4959896;28;20454;-58
2022/11/07 01:32:51;;;;;;;8.60;8.30;;;11.60;46.40;;;;;;4961292;28;20174;-58
2022/11/07 01:35:17;;;;;;;8.43;8.13;;;11.50;46.60;;;;;;4962271;28;20551;-58
2022/11/07 01:37:42;;;;;;;9.07;8.77;;;11.50;46.80;;;;;;4962566;28;20230;-58
2022/11/07 01:40:08;;;;;;;8.63;8.33;;;11.40;47.20;;;;;;4959775;28;20246;-58
2022/11/07 01:42:34;;;;;;;8.47;8.17;;;11.40;47.30;;;;;;4960533;28;20809;-58
2022/11/07 01:45:00;;;;;;;8.30;8.10;;;11.40;47.40;;;;;;4959032;28;20977;-56
2022/11/07 01:47:33;;;;;;;8.83;8.10;;;11.50;47.60;;;;;;4962645;28;20198;-57
2022/11/07 01:49:59;;;;;;;9.07;8.67;;;11.40;47.50;;;;;;4959150;28;20205;-54
2022/11/07 01:52:33;;;;;;;8.50;8.20;;;11.40;47.60;;;;;;4961959;28;20445;-57
2022/11/07 01:55:17;;;;;;;8.80;8.50;;;11.40;47.50;;;;;;4960381;28;20778;-56
2022/11/07 01:57:54;;;;;;;9.00;8.70;;;11.40;47.50;;;;;;4960884;28;20865;-56
2022/11/07 02:00:22;;;;;;;8.77;8.27;;;11.40;47.70;;;;;;4961239;28;20413;-56
2022/11/07 02:02:52;;;;;;;8.40;8.13;;;11.40;47.70;;;;;;4960074;28;20759;-56
2022/11/07 02:05:43;;;;;;;8.70;8.40;;;11.40;47.50;;;;;;4959269;28;20945;-56
2022/11/07 02:08:10;;;;;;;8.90;8.60;;;11.40;47.70;;;;;;4959116;28;20516;-57
2022/11/07 02:10:38;;;;;;;8.80;8.50;;;11.40;47.70;;;;;;4960088;28;20449;-56
2022/11/07 02:13:05;;;;;;;8.97;8.67;;;11.40;47.40;;;;;;4959047;28;20414;-57
2022/11/07 02:15:35;;;;;;;8.50;8.20;;;11.50;47.40;;;;;;4959452;28;20418;-55
2022/11/07 02:18:01;;;;;;;9.00;8.70;;;11.50;47.40;;;;;;4958906;28;20422;-55
2022/11/07 02:20:27;;;;;;;8.37;8.07;;;11.50;46.70;;;;;;4960316;28;20407;-55
2022/11/07 02:22:55;;;;;;;8.43;8.13;;;11.60;46.80;;;;;;4960576;28;21474;-55
2022/11/07 02:25:21;;;;;;;9.27;8.97;;;11.50;46.90;;;;;;4960633;28;20418;-55
2022/11/07 02:27:51;;;;;;;9.47;9.13;;;11.60;46.80;;;;;;4959946;28;20472;-53
2022/11/07 02:30:19;;;;;;;10.30;9.90;;;11.60;46.70;;;;;;4961756;28;20182;-56
2022/11/07 02:32:46;;;;;;;10.07;9.57;;;11.60;46.60;;;;;;4961076;28;20419;-55
2022/11/07 02:35:30;;;;;;;9.87;9.53;;;11.60;46.20;;;;;;4959327;28;20460;-55
2022/11/07 02:37:56;;;;;;;9.90;9.50;;;11.60;46.30;;;;;;4958897;28;20414;-56
2022/11/07 02:40:22;;;;;;;9.43;9.13;;;11.60;46.30;;;;;;4959734;28;20430;-55
2022/11/07 02:42:48;;;;;;;8.80;8.53;;;11.70;46.00;;;;;;4960875;28;20289;-55
2022/11/07 02:45:20;;;;;;;10.27;9.97;;;11.70;45.90;;;;;;4960568;28;20885;-56
2022/11/07 02:47:45;;;;;;;9.33;9.03;;;11.70;46.00;;;;;;4959260;28;20218;-55
2022/11/07 02:50:14;;;;;;;9.70;9.30;;;11.70;45.90;;;;;;4957927;28;20462;-56
2022/11/07 02:52:40;;;;;;;9.60;9.20;;;11.70;45.90;;;;;;4959574;28;20209;-56
2022/11/07 02:55:07;;;;;;;9.20;8.80;;;11.70;46.00;;;;;;4959621;28;20441;-56
2022/11/07 02:57:33;;;;;;;10.57;9.90;;;11.70;46.00;;;;;;4958521;28;20418;-59
2022/11/07 02:59:59;;;;;;;9.53;9.00;;;11.70;46.20;;;;;;4959527;28;20636;-57
2022/11/07 03:02:25;;;;;;;9.57;9.17;;;11.70;46.00;;;;;;4958885;28;20418;-57
2022/11/07 03:04:51;;;;;;;9.80;9.47;;;11.80;45.90;;;;;;4960472;28;20423;-57
2022/11/07 03:07:17;;;;;;;9.30;9.00;;;11.80;45.70;;;;;;4960790;28;20776;-57
2022/11/07 03:09:42;;;;;;;10.17;9.67;;;11.80;45.10;;;;;;4958984;28;20294;-55
2022/11/07 03:12:08;;;;;;;9.00;8.80;;;11.80;45.30;;;;;;4961693;28;20170;-56
2022/11/07 03:14:34;;;;;;;9.10;8.80;;;11.70;45.30;;;;;;4960284;28;20178;-57
2022/11/07 03:16:59;;;;;;;8.90;8.50;;;11.80;45.30;;;;;;4958666;28;20949;-57
2022/11/07 03:19:25;;;;;;;9.80;9.40;;;11.80;45.30;;;;;;4959041;28;20532;-57
2022/11/07 03:21:51;;;;;;;9.00;8.70;;;11.80;45.00;;;;;;4961548;28;20183;-57
2022/11/07 03:24:17;;;;;;;9.27;8.97;;;11.80;45.20;;;;;;4960217;28;20178;-56
2022/11/07 03:26:43;;;;;;;9.27;8.90;;;11.80;45.20;;;;;;4959256;28;20476;-55
2022/11/07 03:29:09;;;;;;;9.10;8.70;;;11.80;45.20;;;;;;4959492;28;20206;-55
2022/11/07 03:31:35;;;;;;;9.00;8.70;;;11.80;45.30;;;;;;4959627;28;20421;-57
2022/11/07 03:34:01;;;;;;;9.10;8.70;;;11.80;45.40;;;;;;4962709;28;20521;-56
2022/11/07 03:36:26;;;;;;;9.30;8.97;;;11.80;44.80;;;;;;4957338;28;20504;-56
2022/11/07 03:38:52;;;;;;;9.33;9.03;;;11.80;44.80;;;;;;4960651;28;20210;-56
2022/11/07 03:41:18;;;;;;;10.00;9.60;;;11.90;44.70;;;;;;4960728;28;20186;-56
2022/11/07 03:43:44;;;;;;;9.77;9.37;;;11.80;44.70;;;;;;4961493;28;20198;-56
2022/11/07 03:46:14;;;;;;;9.90;9.60;;;11.90;44.50;;;;;;4959473;28;20194;-56
2022/11/07 03:48:40;;;;;;;9.63;9.23;;;11.90;44.40;;;;;;4960425;28;20465;-56
2022/11/07 03:51:07;;;;;;;9.90;9.50;;;11.90;44.30;;;;;;4960222;28;20468;-56
2022/11/07 03:53:33;;;;;;;9.27;8.97;;;12.00;44.00;;;;;;4959368;28;20183;-56
2022/11/07 03:55:59;;;;;;;9.40;9.07;;;12.00;43.90;;;;;;4960282;28;20461;-54
2022/11/07 03:58:25;;;;;;;9.73;9.27;;;12.00;43.80;;;;;;4958959;28;20462;-54
2022/11/07 04:00:51;;;;;;;9.50;9.10;;;11.90;44.00;;;;;;4958385;28;20648;-57
2022/11/07 04:03:16;;;;;;;10.17;9.77;;;11.90;44.40;;;;;;4959074;28;20178;-57
2022/11/07 04:05:42;;;;;;;9.67;9.27;;;11.90;44.50;;;;;;4960939;28;20418;-59
2022/11/07 04:08:08;;;;;;;9.40;8.90;;;11.90;44.60;;;;;;4961591;28;20215;-58
2022/11/07 04:10:33;;;;;;;9.20;8.90;;;11.90;44.30;;;;;;4960369;28;20175;-57
2022/11/07 04:18:29;;;;;;;10.37;9.97;;;12.00;43.90;;;;;;4964561;28;20428;-57
2022/11/07 04:20:55;;;;;;;9.90;9.50;;;12.00;43.80;;;;;;4963708;28;20462;-57
2022/11/07 04:23:21;;;;;;;10.43;9.83;;;12.10;43.40;;;;;;4962802;28;20273;-56
2022/11/07 04:28:30;;;;;;;9.80;9.50;;;12.10;43.40;;;;;;4966622;28;20264;-56
2022/11/07 04:30:56;;;;;;;10.20;9.60;;;12.10;43.40;;;;;;4963944;28;20422;-57
2022/11/07 04:33:21;;;;;;;9.60;9.30;;;12.10;43.40;;;;;;4963662;28;20631;-56
2022/11/07 04:35:47;;;;;;;9.60;9.30;;;12.10;43.40;;;;;;4960798;28;20179;-55
2022/11/07 04:38:13;;;;;;;9.80;9.40;;;12.10;43.40;;;;;;4965041;28;20187;-57
2022/11/07 04:40:39;;;;;;;10.10;9.80;;;12.00;43.40;;;;;;4969390;28;20182;-57
2022/11/07 04:43:07;;;;;;;10.03;9.63;;;12.10;43.50;;;;;;4972047;28;20222;-56
2022/11/07 04:45:37;;;;;;;10.10;9.30;;;12.00;43.40;;;;;;4969764;28;20189;-58
2022/11/07 04:48:04;;;;;;;10.40;9.90;;;12.10;43.40;;;;;;4971189;28;20485;-57
2022/11/07 04:50:30;;;;;;;10.90;10.40;;;12.00;43.40;;;;;;4969971;28;20851;-57
2022/11/07 04:52:56;;;;;;;10.00;9.60;;;12.10;43.50;;;;;;4967051;28;20533;-57
2022/11/07 04:55:29;;;;;;;10.23;9.67;;;12.20;43.50;;;;;;4963405;28;20470;-57
2022/11/07 04:57:55;;;;;;;10.40;9.90;;;12.10;43.40;;;;;;4969728;28;20840;-57
2022/11/07 05:00:21;;;;;;;11.00;10.50;;;12.20;43.60;;;;;;4975257;28;20464;-55
2022/11/07 05:02:48;;;;;;;9.83;9.37;;;12.30;43.00;;;;;;4971085;28;20441;-56
2022/11/07 05:05:14;;;;;;;11.47;10.87;;;12.30;42.30;;;;;;4971113;28;20501;-56
2022/11/07 05:07:40;;;;;;;10.53;10.13;;;12.40;42.20;;;;;;4968788;28;20989;-56
2022/11/07 05:10:12;;;;;;;10.37;9.97;;;12.50;42.00;;;;;;4969569;28;20985;-56
2022/11/07 05:12:38;;;;;;;10.50;10.10;;;12.60;42.10;;;;;;4961359;28;20986;-56
2022/11/07 05:15:04;;;;;;;10.80;10.40;;;12.70;41.70;;;;;;4967460;28;20554;-55
2022/11/07 05:17:29;;;;;;;10.37;9.87;;;12.70;41.30;;;;;;4972704;28;20175;-56
2022/11/07 05:19:55;;;;;;;10.33;9.83;;;12.80;41.10;;;;;;4972821;28;20430;-56
2022/11/07 05:25:05;;;;;;;9.50;9.20;;;12.90;40.30;;;;;;4974766;28;20189;-56
2022/11/07 05:27:31;;;;;;;10.50;10.03;;;13.00;40.20;;;;;;4974357;28;20422;-57
2022/11/07 05:29:56;;;;;;;10.10;9.80;;;13.00;39.70;;;;;;4972947;28;20462;-57
2022/11/07 05:32:22;;;;;;;10.70;10.20;;;13.00;39.60;;;;;;4973587;28;20175;-57
2022/11/07 05:34:48;;;;;;;9.80;9.50;;;13.00;39.40;;;;;;4971929;28;20269;-56
2022/11/07 05:37:14;;;;;;;10.00;9.57;;;13.00;39.60;;;;;;4971862;28;20182;-57
2022/11/07 05:39:39;;;;;;;10.00;9.60;;;13.00;39.50;;;;;;4966248;28;20434;-57
2022/11/07 05:42:05;;;;;;;10.23;9.70;;;13.00;39.60;;;;;;4968098;28;20182;-56
2022/11/07 05:44:31;;;;;;;10.40;10.10;;;13.00;39.60;;;;;;4973081;28;20489;-56
2022/11/07 05:46:57;;;;;;;10.23;9.83;;;13.00;39.70;;;;;;4966696;28;20249;-55
2022/11/07 05:49:24;;;;;;;10.30;9.80;;;13.00;39.50;;;;;;4973327;28;20289;-56
2022/11/07 05:51:49;;;;;;;10.40;9.90;;;13.10;39.60;;;;;;4973567;28;20913;-56
2022/11/07 05:54:15;;;;;;;10.03;9.63;;;13.10;39.60;;;;;;4971789;28;20421;-56
2022/11/07 05:56:42;;;;;;;9.37;8.97;;;13.00;39.40;;;;;;4972565;28;20198;-56
2022/11/07 05:59:09;;;;;;;10.53;9.97;;;13.00;39.50;;;;;;4973763;28;20179;-57
2022/11/07 06:01:35;;;;;;;10.63;10.23;;;13.00;39.60;;;;;;4977368;28;20909;-56
2022/11/07 06:04:05;;;;;;;12.00;11.43;;;13.00;40.10;;;;;;4981112;28;20575;-54
2022/11/07 06:06:30;;;;;;;12.07;11.47;;;13.00;40.00;;;;;;4970730;28;20848;-57
2022/11/07 06:08:57;;;;;;;10.53;10.03;;;13.00;39.90;;;;;;4972199;28;20546;-56
2022/11/07 06:11:22;;;;;;;12.00;11.40;;;13.00;39.80;;;;;;4973009;28;20867;-57
2022/11/07 06:13:48;;;;;;;11.03;10.60;;;13.00;40.40;;;;;;4972514;28;20414;-56
2022/11/07 06:16:14;;;;;;;11.63;10.97;;;12.70;40.90;;;;;;4972372;28;20193;-58
2022/11/07 06:18:40;;;;;;;10.57;10.17;;;12.70;41.20;;;;;;4971419;28;20430;-58
2022/11/07 06:21:06;;;;;;;10.87;10.37;;;12.70;41.70;;;;;;4971844;28;20189;-59
2022/11/07 06:23:32;;;;;;;12.10;11.40;;;12.80;41.70;;;;;;4973572;28;20610;-59
2022/11/07 06:25:58;;;;;;;9.90;9.50;;;12.80;41.40;;;;;;4973733;28;20217;-59
2022/11/07 06:28:24;;;;;;;11.13;10.73;;;12.80;41.40;;;;;;4971562;28;20481;-58
2022/11/07 06:30:50;;;;;;;10.63;10.17;;;12.80;41.40;;;;;;4967472;28;20204;-58
2022/11/07 06:33:17;;;;;;;9.70;9.30;;;12.60;42.30;;;;;;4965620;28;20513;-59
2022/11/07 06:35:43;;;;;;;11.13;10.20;;;12.50;43.10;;;;;;4969597;28;20183;-58
2022/11/07 06:38:11;;;;;;;10.70;10.30;;;12.60;43.10;;;;;;4972245;28;20714;-59
2022/11/07 06:40:41;;;;;;;10.33;9.87;;;12.60;43.10;;;;;;4970381;28;20434;-58
2022/11/07 06:43:11;;;;;;;9.93;9.53;;;12.60;43.90;;;;;;4972197;28;20449;-55
2022/11/07 06:45:37;;;;;;;9.40;9.00;;;12.60;43.30;;;;;;4969074;28;20438;-57
2022/11/07 06:48:03;;;;;;;11.40;10.90;;;12.70;43.10;;;;;;4967120;28;20461;-55
2022/11/07 06:50:29;;;;;;;11.17;10.40;;;12.70;43.20;;;;;;4967745;28;20429;-56
2022/11/07 06:52:54;;;;;;;11.37;10.87;;;12.70;42.90;;;;;;4963968;28;20414;-57
2022/11/07 06:55:20;;;;;;;10.67;10.33;;;12.70;43.60;;;;;;4973934;28;20655;-58
2022/11/07 06:57:47;;;;;;;12.00;11.10;;;12.80;43.30;;;;;;4970193;28;20256;-58
2022/11/07 07:00:14;;;;;;;11.77;10.70;;;12.90;43.10;;;;;;4968060;28;20528;-58
2022/11/07 07:02:39;;;;;;;10.53;10.13;;;13.00;42.80;;;;;;4968699;28;20410;-55
2022/11/07 07:05:06;;;;;;;10.00;9.60;;;13.10;42.40;;;;;;4970358;28;20506;-56
2022/11/07 07:07:31;;;;;;;10.37;9.90;;;13.20;42.20;;;;;;4972429;28;20579;-56
2022/11/07 07:09:57;;;;;;;10.17;9.77;;;13.20;41.80;;;;;;4971958;28;20461;-56
2022/11/07 07:12:22;;;;;;;10.20;9.90;;;13.30;41.70;;;;;;4964343;28;20183;-55
2022/11/07 07:14:48;;;;;;;10.07;9.57;;;13.30;41.60;;;;;;4952985;29;20186;-56
2022/11/07 07:17:14;;;;;;;10.80;10.10;;;13.30;41.50;;;;;;4950972;29;20378;-56
2022/11/07 07:19:40;;;;;;;11.00;10.60;;;13.40;41.40;;;;;;4952692;29;20502;-57
2022/11/07 07:22:11;;;;;;;11.30;10.90;;;13.40;41.60;;;;;;4952511;29;21003;-56
2022/11/07 07:24:37;;;;;;;10.47;9.97;;;13.40;41.40;;;;;;4953026;29;20187;-57
2022/11/07 07:27:02;;;;;;;11.17;10.13;;;13.40;41.30;;;;;;4952970;29;20407;-56
2022/11/07 07:29:28;;;;;;;10.07;9.70;;;13.40;41.30;;;;;;4952138;28;20207;-56
2022/11/07 07:31:54;;;;;;;10.40;9.90;;;13.50;41.30;;;;;;4952338;29;20226;-56
2022/11/07 07:34:19;;;;;;;11.27;10.57;;;13.40;41.20;;;;;;4936955;29;20175;-57
2022/11/07 07:36:45;;;;;;;10.77;10.27;;;13.50;41.10;;;;;;4951475;29;20186;-58
2022/11/07 07:39:10;;;;;;;10.67;10.07;;;13.40;40.90;;;;;;4952054;29;20186;-58
2022/11/07 07:41:36;;;;;;;10.47;9.97;;;13.40;41.40;;;;;;4952096;29;20651;-58
2022/11/07 07:44:02;;;;;;;10.63;10.13;;;13.40;41.00;;;;;;4951764;29;20651;-57
2022/11/07 07:46:27;;;;;;;10.23;9.80;;;13.20;41.20;;;;;;4951871;29;20576;-55
2022/11/07 07:48:53;;;;;;;11.00;10.50;;;13.20;41.80;;;;;;4951940;29;20207;-56
2022/11/07 07:51:19;;;;;;;9.53;9.03;;;13.20;41.50;;;;;;4951672;28;20667;-55
2022/11/07 07:53:44;;;;;;;9.87;9.37;;;13.10;41.80;;;;;;4952222;29;20527;-56
2022/11/07 07:56:10;;;;;;;10.47;9.87;;;13.10;42.30;;;;;;4952793;29;20207;-56
2022/11/07 07:58:35;;;;;;;10.23;9.53;;;13.10;41.80;;;;;;4952108;29;20180;-55
2022/11/07 08:01:02;;;;;;;9.70;9.30;;;13.10;41.70;;;;;;4951871;29;20179;-55
2022/11/07 08:03:27;;;;;;;9.80;9.10;;;13.00;41.90;;;;;;4952317;29;20187;-57
2022/11/07 08:05:56;;;;;;;10.90;10.30;;;13.00;42.00;;;;;;4952872;28;20425;-56
2022/11/07 08:08:22;;;;;;;9.73;9.23;;;13.00;42.10;;;;;;4951932;29;20304;-55
2022/11/07 08:10:53;;;;;;;10.80;10.27;;;13.00;42.20;;;;;;4952994;28;20414;-56
2022/11/07 08:13:20;;;;;;;10.80;9.87;;;13.00;42.20;;;;;;4955304;29;20510;-56
2022/11/07 08:15:46;;;;;;;10.00;9.50;;;13.10;41.90;;;;;;4956460;29;20935;-56
2022/11/07 08:18:11;;;;;;;9.60;8.90;;;13.10;41.70;;;;;;4955842;29;20451;-55
2022/11/07 08:20:37;;;;;;;11.43;10.63;;;13.10;41.80;;;;;;4955192;29;20656;-55
2022/11/07 08:23:06;;;;;;;9.47;9.07;;;13.10;41.90;;;;;;4955080;29;20184;-54
2022/11/07 08:25:32;;;;;;;9.70;9.20;;;13.20;41.70;;;;;;4955349;29;20278;-56
2022/11/07 08:27:58;;;;;;;9.10;8.80;;;13.30;41.50;;;;;;4955360;29;20849;-56
2022/11/07 08:30:25;;;;;;;9.50;9.00;;;13.20;41.30;;;;;;4955278;29;20179;-55
2022/11/07 08:32:51;;;;;;;9.77;9.17;;;13.20;41.30;;;;;;4954679;29;20415;-56
2022/11/07 08:35:17;;;;;;;10.60;9.70;;;13.20;41.20;;;;;;4954696;29;20411;-56
2022/11/07 08:37:43;;;;;;;10.47;9.87;;;13.20;41.10;;;;;;4956075;29;20419;-56
2022/11/07 08:40:09;;;;;;;9.00;8.13;;;13.30;41.20;;;;;;4954433;29;20266;-55
2022/11/07 08:42:35;;;;;;;9.10;8.70;;;13.20;41.10;;;;;;4954881;29;20188;-56
2022/11/07 08:45:00;;;;;;;9.47;8.90;;;13.20;41.00;;;;;;4955831;29;20417;-56
2022/11/07 08:47:27;;;;;;;8.77;8.33;;;13.20;40.70;;;;;;4954667;29;20175;-55
2022/11/07 08:49:53;;;;;;;11.27;10.30;;;13.20;40.20;;;;;;4955473;29;20217;-59
2022/11/07 08:52:18;;;;;;;8.43;8.13;;;13.20;40.40;;;;;;4955798;29;20407;-59
2022/11/07 08:54:44;;;;;;;10.10;9.40;;;13.20;40.10;;;;;;4955204;29;20755;-59
2022/11/07 08:57:11;;;;;;;8.03;7.73;;;13.30;39.90;;;;;;4955784;29;20172;-59
2022/11/07 08:59:36;;;;;;;9.93;9.23;;;13.30;39.50;;;;;;4954971;29;20222;-55
2022/11/07 09:02:02;;;;;;;8.67;8.10;;;13.40;39.60;;;;;;4954763;29;20461;-55
2022/11/07 09:04:28;;;;;;;9.13;8.63;;;13.40;39.40;;;;;;4953981;29;20270;-53
2022/11/07 09:06:56;;;;;;;9.93;9.20;;;13.40;39.30;;;;;;4955391;28;20419;-56
2022/11/07 09:09:22;;;;;;;9.93;9.00;;;13.50;39.40;;;;;;4954875;29;20207;-55
2022/11/07 09:11:47;;;;;;;9.40;8.90;;;13.50;39.00;;;;;;4954987;29;20423;-55
2022/11/07 09:14:13;;;;;;;8.77;8.37;;;13.50;38.80;;;;;;4955394;29;20644;-55
2022/11/07 09:16:38;;;;;;;8.20;7.80;;;13.60;38.70;;;;;;4954284;29;20182;-56
2022/11/07 09:19:04;;;;;;;8.60;8.10;;;13.60;38.60;;;;;;4936761;29;20652;-55
2022/11/07 09:21:30;;;;;;;9.70;9.00;;;13.60;38.80;;;;;;4953372;29;20210;-52
2022/11/07 09:23:55;;;;;;;8.20;7.87;;;13.60;38.60;;;;;;4954690;28;20262;-54
2022/11/07 09:26:21;;;;;;;8.17;7.57;;;13.70;38.60;;;;;;4953897;29;20549;-55
2022/11/07 09:28:47;;;;;;;7.70;7.40;;;13.70;38.60;;;;;;4954771;29;20207;-56
2022/11/07 09:31:12;;;;;;;9.13;8.47;;;13.70;38.50;;;;;;4952366;29;20415;-53
2022/11/07 09:33:38;;;;;;;8.47;8.10;;;13.80;38.50;;;;;;4953169;28;20275;-56
2022/11/07 09:36:04;;;;;;;8.77;8.27;;;13.80;38.20;;;;;;4953990;29;20179;-56
2022/11/07 09:38:31;;;;;;;8.93;8.53;;;13.90;38.80;;;;;;4952199;29;20175;-54
2022/11/07 09:41:02;;;;;;;9.17;8.57;;;14.00;39.30;;;;;;4951094;29;20425;-56
2022/11/07 09:43:46;;;;;;;10.10;9.50;;;14.00;38.50;;;;;;4951964;28;21013;-55
2022/11/07 09:46:21;;;;;;;8.47;8.07;;;14.00;37.90;;;;;;4965209;28;20442;-54
2022/11/07 09:48:53;;;;;;;8.87;8.40;;;14.10;36.80;;;;;;4951273;29;20454;-55
2022/11/07 09:51:28;;;;;;;8.97;8.67;;;14.10;36.70;;;;;;4950309;29;20729;-55
2022/11/07 09:53:59;;;;;;;9.23;8.57;;;14.00;35.90;;;;;;4951711;29;20514;-55
2022/11/07 09:56:28;;;;;;;8.20;7.93;;;14.10;36.80;;;;;;4950917;29;20426;-56
2022/11/07 09:58:56;;;;;;;7.90;7.50;;;14.10;36.20;;;;;;4951154;29;20412;-55
2022/11/07 10:01:22;;;;;;;8.30;7.80;;;14.10;35.50;;;;;;4952484;28;20434;-54
2022/11/07 10:03:48;;;;;;;9.47;8.87;;;14.10;35.70;;;;;;4950690;29;20477;-55
2022/11/07 10:06:28;;;;;;;9.53;9.10;;;14.20;35.70;;;;;;4950595;29;20415;-53
2022/11/07 10:09:10;;;;;;;9.53;8.93;;;14.10;35.90;;;;;;4950714;29;20210;-54
2022/11/07 10:11:55;;;;;;;9.40;8.90;;;14.20;36.20;;;;;;4951449;29;20423;-52
2022/11/07 10:14:35;;;;;;;8.33;7.93;;;14.20;36.40;;;;;;4950947;29;20422;-53
2022/11/07 10:17:48;;;;;;;9.70;9.13;;;14.20;36.50;;;;;;4951266;28;20785;-55
2022/11/07 10:20:17;;;;;;;9.30;8.70;;;14.20;36.60;;;;;;4893830;29;20532;-54
2022/11/07 10:23:03;;;;;;;9.53;8.80;;;14.20;36.70;;;;;;4940997;28;20435;-55
2022/11/07 10:25:32;;;;;;;9.30;8.87;;;14.20;36.80;;;;;;4949167;29;20785;-54
2022/11/07 10:28:15;;;;;;;8.53;8.13;;;14.20;36.80;;;;;;4951310;29;20975;-55
2022/11/07 10:30:48;;;;;;;8.87;8.47;;;14.20;36.30;;;;;;4952029;29;20782;-54
2022/11/07 10:33:28;;;;;;;9.03;8.60;;;14.10;36.40;;;;;;4952268;29;20424;-55
2022/11/07 10:36:02;;;;;;;8.90;8.50;;;14.10;36.40;;;;;;4951357;29;20446;-56
2022/11/07 10:38:29;;;;;;;8.67;8.37;;;14.10;36.80;;;;;;4953386;29;20415;-55
2022/11/07 10:40:55;;;;;;;9.60;9.07;;;14.00;36.90;;;;;;4952108;29;20415;-55
2022/11/07 10:43:39;;;;;;;8.40;8.10;;;14.10;37.10;;;;;;4952876;29;20543;-55
2022/11/07 10:46:31;;;;;;;8.97;8.47;;;14.00;36.80;;;;;;4951202;28;20427;-54
2022/11/07 10:48:59;;;;;;;9.30;8.70;;;14.10;37.00;;;;;;4948005;28;20471;-52
2022/11/07 10:51:41;;;;;;;8.73;8.23;;;14.10;36.80;;;;;;4951581;28;20415;-54
2022/11/07 10:54:25;;;;;;;8.60;8.20;;;14.10;36.80;;;;;;4952931;29;20430;-53
2022/11/07 10:57:12;;;;;;;10.40;8.37;;;14.10;36.70;;;;;;4952365;28;20427;-53
2022/11/07 10:59:43;;;;;;;8.63;8.23;;;14.10;36.80;;;;;;4952934;29;20848;-57
2022/11/07 11:02:22;;;;;;;8.63;8.23;;;14.20;36.80;;;;;;4951948;28;20490;-57
2022/11/07 11:04:53;;;;;;;8.30;8.10;;;14.20;36.30;;;;;;4950970;29;20476;-57
2022/11/07 11:07:18;;;;;;;8.47;8.20;;;14.30;36.20;;;;;;4953198;28;20423;-57
2022/11/07 11:09:56;;;;;;;9.10;8.40;;;14.20;35.90;;;;;;4952400;29;20824;-57
2022/11/07 11:12:28;;;;;;;9.50;9.00;;;14.20;36.00;;;;;;4951631;28;20234;-56
2022/11/07 11:15:09;;;;;;;9.70;8.73;;;14.20;36.00;;;;;;4951754;29;20433;-56
2022/11/07 11:17:35;;;;;;;9.87;9.03;;;14.30;36.20;;;;;;4952183;29;20425;-58
2022/11/07 11:20:01;;;;;;;9.43;8.77;;;14.30;36.00;;;;;;4951829;29;20419;-57
2022/11/07 11:22:28;;;;;;;8.70;8.20;;;14.40;35.80;;;;;;4952269;29;20183;-57
2022/11/07 11:25:22;;;;;;;8.10;7.70;;;14.40;35.40;;;;;;4952907;29;20187;-57
2022/11/07 11:27:58;;;;;;;9.60;9.00;;;14.50;36.20;;;;;;4939779;28;20423;-58
2022/11/07 11:30:25;;;;;;;9.07;8.60;;;14.60;36.10;;;;;;4950328;29;20410;-57
2022/11/07 11:33:15;;;;;;;10.03;9.00;;;14.60;35.50;;;;;;4951624;28;20422;-57
2022/11/07 11:35:46;;;;;;;9.43;9.00;;;14.70;35.70;;;;;;4950832;28;20422;-57
2022/11/07 11:38:29;;;;;;;9.03;8.53;;;14.90;35.80;;;;;;4951962;28;20455;-57
2022/11/07 11:41:01;;;;;;;9.00;8.50;;;14.90;32.60;;;;;;4956260;28;20466;-57
2022/11/07 11:43:42;;;;;;;9.60;9.30;;;15.00;32.40;;;;;;4950936;29;20431;-57
2022/11/07 11:46:13;;;;;;;9.87;9.30;;;15.00;32.00;;;;;;4950506;28;20569;-57
2022/11/07 11:48:50;;;;;;;8.77;8.50;;;15.00;32.10;;;;;;4951461;29;20471;-57
2022/11/07 11:51:19;;;;;;;9.03;8.57;;;15.10;31.70;;;;;;4951601;29;20414;-58
2022/11/07 11:53:44;;;;;;;9.50;8.93;;;15.10;31.40;;;;;;4950988;29;20473;-58
2022/11/07 11:56:25;;;;;;;9.67;9.10;;;15.10;31.20;;;;;;4952550;29;20443;-58
2022/11/07 11:59:09;;;;;;;9.17;8.80;;;15.10;30.50;;;;;;4948151;29;20183;-58
2022/11/07 12:01:53;;;;;;;9.10;8.63;;;15.10;30.90;;;;;;4950452;29;20425;-58
2022/11/07 12:04:35;;;;;;;9.47;9.00;;;15.10;31.00;;;;;;4950250;29;21022;-58
2022/11/07 12:07:32;;;;;;;9.30;8.97;;;15.10;30.80;;;;;;4951205;29;20426;-58
2022/11/07 12:10:27;;;;;;;9.40;8.93;;;15.10;31.10;;;;;;4950858;29;20471;-58
2022/11/07 12:13:18;;;;;;;9.67;9.37;;;15.10;30.90;;;;;;4949268;29;20917;-57
2022/11/07 12:16:16;;;;;;;9.10;8.80;;;15.20;31.30;;;;;;4951428;29;20457;-59
2022/11/07 12:19:33;;;;;;;9.53;9.13;;;15.30;31.10;;;;;;4947199;29;20442;-58
2022/11/07 12:22:16;;;;;;;10.10;9.63;;;15.30;31.00;;;;;;4906465;29;20838;-58
2022/11/07 12:24:50;;;;;;;9.70;9.10;;;15.30;30.60;;;;;;4951476;29;21028;-53
2022/11/07 12:27:33;;;;;;;9.83;9.30;;;15.30;30.50;;;;;;4952544;29;20903;-57
2022/11/07 12:30:32;;;;;;;10.27;9.77;;;15.30;30.60;;;;;;4950089;29;20462;-59
2022/11/07 12:33:11;;;;;;;9.50;8.90;;;15.30;30.30;;;;;;4950532;29;20407;-56
2022/11/07 12:36:12;;;;;;;9.50;9.20;;;15.30;30.50;;;;;;4951113;29;20410;-59
2022/11/07 12:39:21;;;;;;;9.93;9.30;;;15.40;30.20;;;;;;4952220;29;20429;-57
2022/11/07 12:42:05;;;;;;;10.10;9.50;;;15.40;30.30;;;;;;4879715;29;20429;-57
2022/11/07 12:44:55;;;;;;;10.33;9.73;;;15.40;30.30;;;;;;4958920;28;20774;-57
2022/11/07 12:47:40;;;;;;;9.63;9.13;;;15.50;30.10;;;;;;4969933;28;20911;-57
2022/11/07 12:50:11;;;;;;;10.70;10.00;;;15.50;30.00;;;;;;4969301;28;20462;-57
2022/11/07 12:52:44;;;;;;;10.00;9.70;;;15.50;29.70;;;;;;4971389;28;20417;-56
2022/11/07 12:55:36;;;;;;;10.67;10.03;;;15.50;29.70;;;;;;4970529;28;20410;-57
2022/11/07 12:58:04;;;;;;;10.27;9.87;;;15.50;29.60;;;;;;4971805;28;20517;-57
2022/11/07 13:00:29;;;;;;;10.40;10.10;;;15.50;29.60;;;;;;4973034;28;20433;-58
2022/11/07 13:03:01;;;;;;;9.80;9.50;;;15.50;29.20;;;;;;4974737;28;20418;-58
2022/11/07 13:05:35;;;;;;;11.00;10.40;;;15.50;29.10;;;;;;4974898;28;20198;-57
2022/11/07 13:08:24;;;;;;;10.43;10.03;;;15.60;29.30;;;;;;4974795;28;20409;-58
2022/11/07 13:10:59;;;;;;;10.27;9.77;;;15.60;29.00;;;;;;4968159;28;20868;-58